sensor_id;sensor_type;location;lat;lon;timestamp;pressure;altitude;pressure_sealevel;temperature;humidity
45323;BME280;31382;50.200;8.674;2023-04-09T00:01:15;101209.59;;;10.55;57.05
45323;BME280;31382;50.200;8.674;2023-04-09T00:06:16;101208.22;;;10.51;57.36
45323;BME280;31382;50.200;8.674;2023-04-09T00:11:18;101208.66;;;10.46;57.52
45323;BME280;31382;50.200;8.674;2023-04-09T00:16:19;101205.59;;;10.41;57.91
45323;BME280;31382;50.200;8.674;2023-04-09T00:21:21;101198.75;;;10.29;58.00
45323;BME280;31382;50.200;8.674;2023-04-09T00:26:22;101202.03;;;10.23;58.20
45323;BME280;31382;50.200;8.674;2023-04-09T00:31:23;101202.19;;;10.21;58.32
45323;BME280;31382;50.200;8.674;2023-04-09T00:36:25;101195.59;;;10.16;58.45
45323;BME280;31382;50.200;8.674;2023-04-09T00:41:27;101191.66;;;10.10;58.75
45323;BME280;31382;50.200;8.674;2023-04-09T00:46:30;101176.53;;;10.09;58.80
45323;BME280;31382;50.200;8.674;2023-04-09T00:51:32;101177.47;;;10.00;58.90
45323;BME280;31382;50.200;8.674;2023-04-09T00:56:34;101177.53;;;9.90;59.41
45323;BME280;31382;50.200;8.674;2023-04-09T01:01:36;101179.19;;;9.91;59.32
45323;BME280;31382;50.200;8.674;2023-04-09T01:06:51;101183.50;;;9.84;59.45
45323;BME280;31382;50.200;8.674;2023-04-09T01:12:25;101179.50;;;9.88;59.26
45323;BME280;31382;50.200;8.674;2023-04-09T01:28:38;101183.97;;;9.69;59.71
45323;BME280;31382;50.200;8.674;2023-04-09T01:33:42;101190.59;;;9.75;59.69
45323;BME280;31382;50.200;8.674;2023-04-09T01:38:44;101189.31;;;9.79;60.01
45323;BME280;31382;50.200;8.674;2023-04-09T01:43:50;101190.16;;;9.80;59.92
45323;BME280;31382;50.200;8.674;2023-04-09T01:48:52;101189.63;;;9.76;60.30
45323;BME280;31382;50.200;8.674;2023-04-09T01:53:55;101188.78;;;9.76;60.44
45323;BME280;31382;50.200;8.674;2023-04-09T01:58:56;101186.53;;;9.71;60.45
45323;BME280;31382;50.200;8.674;2023-04-09T02:04:03;101184.16;;;9.68;60.66
45323;BME280;31382;50.200;8.674;2023-04-09T02:09:07;101189.94;;;9.63;60.68
45323;BME280;31382;50.200;8.674;2023-04-09T02:14:10;101185.03;;;9.59;60.80
45323;BME280;31382;50.200;8.674;2023-04-09T02:19:12;101194.94;;;9.58;60.81
45323;BME280;31382;50.200;8.674;2023-04-09T02:24:13;101195.81;;;9.49;61.14
45323;BME280;31382;50.200;8.674;2023-04-09T02:29:15;101196.53;;;9.51;61.04
45323;BME280;31382;50.200;8.674;2023-04-09T02:34:18;101196.41;;;9.43;61.56
45323;BME280;31382;50.200;8.674;2023-04-09T02:39:19;101193.28;;;9.47;61.25
45323;BME280;31382;50.200;8.674;2023-04-09T02:44:20;101185.22;;;9.47;61.02
45323;BME280;31382;50.200;8.674;2023-04-09T02:49:22;101188.97;;;9.37;61.53
45323;BME280;31382;50.200;8.674;2023-04-09T02:54:23;101191.31;;;9.40;61.41
45323;BME280;31382;50.200;8.674;2023-04-09T02:59:25;101190.34;;;9.41;61.48
45323;BME280;31382;50.200;8.674;2023-04-09T03:04:26;101175.09;;;9.41;61.44
45323;BME280;31382;50.200;8.674;2023-04-09T03:09:28;101175.41;;;9.38;61.86
45323;BME280;31382;50.200;8.674;2023-04-09T03:14:30;101176.38;;;9.37;61.62
45323;BME280;31382;50.200;8.674;2023-04-09T03:19:32;101166.25;;;9.31;62.05
45323;BME280;31382;50.200;8.674;2023-04-09T03:24:33;101172.44;;;9.31;61.92
45323;BME280;31382;50.200;8.674;2023-04-09T03:29:35;101162.81;;;9.39;61.78
45323;BME280;31382;50.200;8.674;2023-04-09T03:34:36;101165.88;;;9.44;61.54
45323;BME280;31382;50.200;8.674;2023-04-09T03:39:37;101155.88;;;9.46;61.72
45323;BME280;31382;50.200;8.674;2023-04-09T03:44:39;101161.06;;;9.47;61.77
45323;BME280;31382;50.200;8.674;2023-04-09T03:49:40;101155.56;;;9.49;61.83
45323;BME280;31382;50.200;8.674;2023-04-09T03:54:42;101159.63;;;9.53;61.92
45323;BME280;31382;50.200;8.674;2023-04-09T03:59:43;101157.50;;;9.57;62.13
45323;BME280;31382;50.200;8.674;2023-04-09T04:04:45;101161.03;;;9.57;61.96
45323;BME280;31382;50.200;8.674;2023-04-09T04:09:47;101159.19;;;9.58;61.74
45323;BME280;31382;50.200;8.674;2023-04-09T04:14:48;101159.19;;;9.58;61.78
45323;BME280;31382;50.200;8.674;2023-04-09T04:19:49;101156.13;;;9.52;62.09
45323;BME280;31382;50.200;8.674;2023-04-09T04:24:50;101155.28;;;9.52;62.48
45323;BME280;31382;50.200;8.674;2023-04-09T04:29:52;101165.00;;;9.53;62.28
45323;BME280;31382;50.200;8.674;2023-04-09T04:34:53;101163.75;;;9.47;62.55
45323;BME280;31382;50.200;8.674;2023-04-09T04:39:55;101162.50;;;9.42;62.82
45323;BME280;31382;50.200;8.674;2023-04-09T04:57:07;101174.34;;;9.49;62.24
45323;BME280;31382;50.200;8.674;2023-04-09T05:02:10;101179.44;;;9.52;62.53
45323;BME280;31382;50.200;8.674;2023-04-09T05:07:12;101175.47;;;9.56;62.36
45323;BME280;31382;50.200;8.674;2023-04-09T05:12:14;101172.47;;;9.59;62.81
45323;BME280;31382;50.200;8.674;2023-04-09T05:17:18;101181.06;;;9.63;62.63
45323;BME280;31382;50.200;8.674;2023-04-09T05:22:34;101180.50;;;9.59;62.88
45323;BME280;31382;50.200;8.674;2023-04-09T05:27:50;101183.06;;;9.61;62.83
45323;BME280;31382;50.200;8.674;2023-04-09T05:32:55;101183.59;;;9.64;62.74
45323;BME280;31382;50.200;8.674;2023-04-09T05:37:59;101183.59;;;9.64;62.60
45323;BME280;31382;50.200;8.674;2023-04-09T05:43:01;101188.13;;;9.64;62.66
45323;BME280;31382;50.200;8.674;2023-04-09T05:48:03;101192.91;;;9.70;62.99
45323;BME280;31382;50.200;8.674;2023-04-09T05:53:05;101197.66;;;9.76;62.95
45323;BME280;31382;50.200;8.674;2023-04-09T05:58:07;101192.16;;;9.78;62.92
45323;BME280;31382;50.200;8.674;2023-04-09T06:19:41;101194.41;;;10.00;63.12
45323;BME280;31382;50.200;8.674;2023-04-09T06:51:29;101205.88;;;10.74;62.04
45323;BME280;31382;50.200;8.674;2023-04-09T06:56:32;101211.69;;;10.87;62.27
45323;BME280;31382;50.200;8.674;2023-04-09T07:01:34;101208.22;;;10.95;61.89
45323;BME280;31382;50.200;8.674;2023-04-09T07:06:37;101208.19;;;11.13;61.60
45323;BME280;31382;50.200;8.674;2023-04-09T07:11:40;101206.75;;;11.27;61.27
45323;BME280;31382;50.200;8.674;2023-04-09T07:16:41;101211.38;;;11.43;61.39
45323;BME280;31382;50.200;8.674;2023-04-09T07:21:44;101207.88;;;11.50;61.25
45323;BME280;31382;50.200;8.674;2023-04-09T07:26:45;101207.56;;;11.54;61.00
45323;BME280;31382;50.200;8.674;2023-04-09T07:31:47;101207.63;;;11.70;60.77
45323;BME280;31382;50.200;8.674;2023-04-09T07:36:48;101208.03;;;11.83;60.96
45323;BME280;31382;50.200;8.674;2023-04-09T07:41:50;101214.31;;;12.00;60.55
45323;BME280;31382;50.200;8.674;2023-04-09T07:46:51;101203.09;;;12.21;60.06
45323;BME280;31382;50.200;8.674;2023-04-09T07:51:53;101210.06;;;12.48;59.79
45323;BME280;31382;50.200;8.674;2023-04-09T07:56:54;101213.78;;;12.64;59.29
45323;BME280;31382;50.200;8.674;2023-04-09T08:01:56;101215.63;;;12.88;59.04
45323;BME280;31382;50.200;8.674;2023-04-09T08:06:58;101224.72;;;13.03;58.80
45323;BME280;31382;50.200;8.674;2023-04-09T08:11:59;101221.13;;;13.27;58.27
45323;BME280;31382;50.200;8.674;2023-04-09T08:17:01;101229.69;;;13.56;56.97
45323;BME280;31382;50.200;8.674;2023-04-09T08:22:03;101229.81;;;13.71;57.11
45323;BME280;31382;50.200;8.674;2023-04-09T08:27:04;101228.59;;;13.81;56.55
45323;BME280;31382;50.200;8.674;2023-04-09T08:32:05;101220.38;;;13.98;56.14
45323;BME280;31382;50.200;8.674;2023-04-09T08:37:07;101227.78;;;14.04;55.72
45323;BME280;31382;50.200;8.674;2023-04-09T08:42:08;101230.47;;;14.12;55.48
45323;BME280;31382;50.200;8.674;2023-04-09T08:47:12;101236.56;;;14.37;54.18
45323;BME280;31382;50.200;8.674;2023-04-09T08:52:14;101234.72;;;14.61;53.62
45323;BME280;31382;50.200;8.674;2023-04-09T08:57:17;101236.72;;;14.67;53.53
45323;BME280;31382;50.200;8.674;2023-04-09T09:02:19;101234.97;;;14.74;53.15
45323;BME280;31382;50.200;8.674;2023-04-09T09:07:20;101240.34;;;14.51;53.17
45323;BME280;31382;50.200;8.674;2023-04-09T09:12:30;101235.03;;;14.66;52.46
45323;BME280;31382;50.200;8.674;2023-04-09T09:17:33;101232.34;;;14.66;52.64
45323;BME280;31382;50.200;8.674;2023-04-09T09:22:48;101228.22;;;14.93;51.86
45323;BME280;31382;50.200;8.674;2023-04-09T09:28:06;101235.38;;;14.86;52.09
45323;BME280;31382;50.200;8.674;2023-04-09T09:33:09;101239.81;;;15.02;51.66
45323;BME280;31382;50.200;8.674;2023-04-09T09:38:11;101233.72;;;14.85;51.72
45323;BME280;31382;50.200;8.674;2023-04-09T09:43:13;101235.19;;;14.87;51.33
45323;BME280;31382;50.200;8.674;2023-04-09T09:48:15;101228.88;;;14.95;51.09
45323;BME280;31382;50.200;8.674;2023-04-09T09:53:21;101227.59;;;15.06;50.16
45323;BME280;31382;50.200;8.674;2023-04-09T09:58:27;101222.19;;;15.21;49.66
45323;BME280;31382;50.200;8.674;2023-04-09T10:03:33;101225.38;;;15.24;50.19
45323;BME280;31382;50.200;8.674;2023-04-09T10:08:39;101218.69;;;15.50;49.14
45323;BME280;31382;50.200;8.674;2023-04-09T10:13:47;101218.19;;;15.32;49.27
45323;BME280;31382;50.200;8.674;2023-04-09T10:18:49;101216.78;;;15.36;49.06
45323;BME280;31382;50.200;8.674;2023-04-09T10:23:52;101213.72;;;15.39;48.35
45323;BME280;31382;50.200;8.674;2023-04-09T10:29:07;101208.19;;;15.47;48.21
45323;BME280;31382;50.200;8.674;2023-04-09T10:34:09;101200.44;;;15.74;48.03
45323;BME280;31382;50.200;8.674;2023-04-09T10:39:12;101195.34;;;16.00;47.33
45323;BME280;31382;50.200;8.674;2023-04-09T10:44:24;101198.88;;;16.37;46.68
45323;BME280;31382;50.200;8.674;2023-04-09T10:49:26;101194.75;;;16.63;45.88
45323;BME280;31382;50.200;8.674;2023-04-09T10:59:35;101186.81;;;16.83;46.72
45323;BME280;31382;50.200;8.674;2023-04-09T11:04:55;101186.47;;;16.93;45.43
45323;BME280;31382;50.200;8.674;2023-04-09T11:10:02;101181.16;;;17.13;44.98
45323;BME280;31382;50.200;8.674;2023-04-09T11:15:04;101179.91;;;17.15;44.14
45323;BME280;31382;50.200;8.674;2023-04-09T11:20:06;101183.13;;;17.25;43.60
45323;BME280;31382;50.200;8.674;2023-04-09T11:25:07;101174.19;;;17.03;43.89
45323;BME280;31382;50.200;8.674;2023-04-09T11:30:09;101179.06;;;17.08;43.82
45323;BME280;31382;50.200;8.674;2023-04-09T11:35:12;101177.53;;;17.34;43.14
45323;BME280;31382;50.200;8.674;2023-04-09T11:40:25;101164.72;;;17.69;42.07
45323;BME280;31382;50.200;8.674;2023-04-09T11:45:28;101167.56;;;17.89;41.69
45323;BME280;31382;50.200;8.674;2023-04-09T11:50:29;101175.16;;;18.14;41.66
45323;BME280;31382;50.200;8.674;2023-04-09T11:55:32;101165.56;;;18.31;41.32
45323;BME280;31382;50.200;8.674;2023-04-09T12:00:33;101173.34;;;18.41;40.90
45323;BME280;31382;50.200;8.674;2023-04-09T12:05:35;101163.09;;;18.76;40.27
45323;BME280;31382;50.200;8.674;2023-04-09T12:10:38;101161.38;;;19.15;39.78
45323;BME280;31382;50.200;8.674;2023-04-09T12:15:40;101161.78;;;19.19;39.02
45323;BME280;31382;50.200;8.674;2023-04-09T12:20:45;101155.06;;;19.28;38.27
45323;BME280;31382;50.200;8.674;2023-04-09T12:25:47;101151.09;;;19.24;38.47
45323;BME280;31382;50.200;8.674;2023-04-09T12:30:49;101153.88;;;19.04;38.40
45323;BME280;31382;50.200;8.674;2023-04-09T12:35:51;101143.84;;;18.85;38.63
45323;BME280;31382;50.200;8.674;2023-04-09T12:40:52;101142.75;;;18.99;38.49
45323;BME280;31382;50.200;8.674;2023-04-09T12:45:54;101150.75;;;18.94;38.29
45323;BME280;31382;50.200;8.674;2023-04-09T12:50:55;101134.41;;;18.87;38.48
45323;BME280;31382;50.200;8.674;2023-04-09T12:55:57;101131.25;;;18.57;38.50
45323;BME280;31382;50.200;8.674;2023-04-09T13:00:58;101122.88;;;18.58;38.16
45323;BME280;31382;50.200;8.674;2023-04-09T13:05:59;101109.38;;;19.17;36.93
45323;BME280;31382;50.200;8.674;2023-04-09T13:11:01;101113.53;;;19.39;36.07
45323;BME280;31382;50.200;8.674;2023-04-09T13:16:03;101103.06;;;19.30;35.33
45323;BME280;31382;50.200;8.674;2023-04-09T13:21:04;101098.81;;;19.40;34.94
45323;BME280;31382;50.200;8.674;2023-04-09T13:26:06;101103.38;;;18.95;35.47
45323;BME280;31382;50.200;8.674;2023-04-09T13:31:07;101099.81;;;18.94;34.76
45323;BME280;31382;50.200;8.674;2023-04-09T13:36:09;101086.41;;;18.86;34.81
45323;BME280;31382;50.200;8.674;2023-04-09T13:41:10;101094.34;;;18.94;34.64
45323;BME280;31382;50.200;8.674;2023-04-09T13:46:12;101084.72;;;18.98;34.64
45323;BME280;31382;50.200;8.674;2023-04-09T13:51:13;101073.75;;;19.18;34.41
45323;BME280;31382;50.200;8.674;2023-04-09T13:56:15;101065.38;;;19.58;33.76
45323;BME280;31382;50.200;8.674;2023-04-09T14:01:16;101054.22;;;19.73;33.78
45323;BME280;31382;50.200;8.674;2023-04-09T14:06:18;101057.66;;;19.55;33.71
45323;BME280;31382;50.200;8.674;2023-04-09T14:11:19;101049.88;;;19.59;33.36
45323;BME280;31382;50.200;8.674;2023-04-09T14:16:21;101044.16;;;19.67;32.90
45323;BME280;31382;50.200;8.674;2023-04-09T14:21:24;101039.97;;;19.71;33.00
45323;BME280;31382;50.200;8.674;2023-04-09T14:26:26;101040.53;;;19.80;33.03
45323;BME280;31382;50.200;8.674;2023-04-09T14:31:29;101044.56;;;19.71;32.78
45323;BME280;31382;50.200;8.674;2023-04-09T14:36:30;101046.28;;;19.58;32.73
45323;BME280;31382;50.200;8.674;2023-04-09T14:41:32;101042.56;;;19.46;32.64
45323;BME280;31382;50.200;8.674;2023-04-09T14:46:34;101033.84;;;19.31;32.83
45323;BME280;31382;50.200;8.674;2023-04-09T14:51:36;101034.63;;;19.83;32.15
45323;BME280;31382;50.200;8.674;2023-04-09T14:56:38;101029.66;;;20.92;30.85
45323;BME280;31382;50.200;8.674;2023-04-09T15:01:39;101026.47;;;21.14;30.65
45323;BME280;31382;50.200;8.674;2023-04-09T15:06:41;101020.47;;;21.05;30.91
45323;BME280;31382;50.200;8.674;2023-04-09T15:11:42;101012.06;;;21.37;30.46
45323;BME280;31382;50.200;8.674;2023-04-09T15:16:43;101006.28;;;21.75;30.30
45323;BME280;31382;50.200;8.674;2023-04-09T15:21:45;101004.59;;;22.64;29.65
45323;BME280;31382;50.200;8.674;2023-04-09T15:26:46;101001.44;;;22.95;29.07
45323;BME280;31382;50.200;8.674;2023-04-09T15:31:51;100991.47;;;22.77;29.01
45323;BME280;31382;50.200;8.674;2023-04-09T15:36:53;100997.81;;;22.31;29.21
45323;BME280;31382;50.200;8.674;2023-04-09T15:41:54;101000.59;;;21.89;29.33
45323;BME280;31382;50.200;8.674;2023-04-09T15:46:59;100993.91;;;21.43;29.98
45323;BME280;31382;50.200;8.674;2023-04-09T15:52:00;100992.47;;;20.91;30.74
45323;BME280;31382;50.200;8.674;2023-04-09T15:57:01;100993.56;;;20.47;30.50
45323;BME280;31382;50.200;8.674;2023-04-09T16:02:04;100990.81;;;20.28;30.41
45323;BME280;31382;50.200;8.674;2023-04-09T16:07:06;100997.06;;;20.10;30.16
45323;BME280;31382;50.200;8.674;2023-04-09T16:12:08;100984.28;;;20.04;30.48
45323;BME280;31382;50.200;8.674;2023-04-09T16:17:09;100981.94;;;20.33;30.03
45323;BME280;31382;50.200;8.674;2023-04-09T16:22:11;100980.69;;;20.54;30.50
45323;BME280;31382;50.200;8.674;2023-04-09T16:27:12;100973.72;;;20.76;29.83
45323;BME280;31382;50.200;8.674;2023-04-09T16:32:14;100978.88;;;21.03;29.04
45323;BME280;31382;50.200;8.674;2023-04-09T16:37:16;100971.41;;;21.10;28.66
45323;BME280;31382;50.200;8.674;2023-04-09T16:42:17;100968.28;;;21.07;28.29
45323;BME280;31382;50.200;8.674;2023-04-09T16:47:18;100973.91;;;21.42;28.58
45323;BME280;31382;50.200;8.674;2023-04-09T16:52:20;100976.03;;;21.58;28.43
45323;BME280;31382;50.200;8.674;2023-04-09T16:57:21;100970.63;;;21.52;28.81
45323;BME280;31382;50.200;8.674;2023-04-09T17:02:23;100976.25;;;21.38;28.82
45323;BME280;31382;50.200;8.674;2023-04-09T17:07:25;100961.66;;;21.14;28.60
45323;BME280;31382;50.200;8.674;2023-04-09T17:12:26;100957.78;;;20.92;29.07
45323;BME280;31382;50.200;8.674;2023-04-09T17:17:27;100957.25;;;20.65;29.29
45323;BME280;31382;50.200;8.674;2023-04-09T17:22:29;100965.63;;;20.45;29.85
45323;BME280;31382;50.200;8.674;2023-04-09T17:27:30;100968.69;;;20.11;30.07
45323;BME280;31382;50.200;8.674;2023-04-09T17:32:32;100970.47;;;19.74;30.21
45323;BME280;31382;50.200;8.674;2023-04-09T17:37:33;100977.56;;;19.43;30.58
45323;BME280;31382;50.200;8.674;2023-04-09T17:42:35;100982.16;;;19.11;31.24
45323;BME280;31382;50.200;8.674;2023-04-09T17:47:36;100981.22;;;18.72;31.52
45323;BME280;31382;50.200;8.674;2023-04-09T17:52:39;100982.34;;;18.37;31.84
45323;BME280;31382;50.200;8.674;2023-04-09T17:57:40;100987.19;;;18.02;32.75
45323;BME280;31382;50.200;8.674;2023-04-09T18:02:42;100991.31;;;17.71;32.68
45323;BME280;31382;50.200;8.674;2023-04-09T18:07:45;100999.00;;;17.41;33.26
45323;BME280;31382;50.200;8.674;2023-04-09T18:12:46;100996.63;;;17.11;34.23
45323;BME280;31382;50.200;8.674;2023-04-09T18:17:47;101006.75;;;16.82;34.97
45323;BME280;31382;50.200;8.674;2023-04-09T18:22:49;101007.16;;;16.51;36.04
45323;BME280;31382;50.200;8.674;2023-04-09T18:27:50;101006.13;;;16.24;36.68
45323;BME280;31382;50.200;8.674;2023-04-09T18:32:52;101015.72;;;15.98;37.58
45323;BME280;31382;50.200;8.674;2023-04-09T18:37:54;101020.19;;;15.70;38.67
45323;BME280;31382;50.200;8.674;2023-04-09T18:42:55;101018.66;;;15.39;39.43
45323;BME280;31382;50.200;8.674;2023-04-09T18:47:56;101024.84;;;15.18;40.11
45323;BME280;31382;50.200;8.674;2023-04-09T18:52:58;101024.31;;;14.93;40.86
45323;BME280;31382;50.200;8.674;2023-04-09T18:57:59;101029.38;;;14.66;41.54
45323;BME280;31382;50.200;8.674;2023-04-09T19:03:02;101036.69;;;14.42;42.34
45323;BME280;31382;50.200;8.674;2023-04-09T19:08:05;101026.78;;;14.20;43.40
45323;BME280;31382;50.200;8.674;2023-04-09T19:13:07;101032.56;;;13.94;43.93
45323;BME280;31382;50.200;8.674;2023-04-09T19:18:08;101039.81;;;13.70;44.38
45323;BME280;31382;50.200;8.674;2023-04-09T19:23:09;101039.31;;;13.43;45.20
45323;BME280;31382;50.200;8.674;2023-04-09T19:28:11;101041.78;;;13.22;45.08
45323;BME280;31382;50.200;8.674;2023-04-09T19:33:12;101040.53;;;13.01;45.88
45323;BME280;31382;50.200;8.674;2023-04-09T19:38:14;101041.75;;;12.82;45.80
45323;BME280;31382;50.200;8.674;2023-04-09T19:43:16;101047.53;;;12.63;46.69
45323;BME280;31382;50.200;8.674;2023-04-09T19:48:17;101043.84;;;12.47;47.18
45323;BME280;31382;50.200;8.674;2023-04-09T19:53:19;101048.09;;;12.34;47.46
45323;BME280;31382;50.200;8.674;2023-04-09T19:58:20;101036.50;;;12.17;47.97
45323;BME280;31382;50.200;8.674;2023-04-09T20:03:22;101039.31;;;11.82;49.43
45323;BME280;31382;50.200;8.674;2023-04-09T20:08:23;101042.84;;;11.66;49.62
45323;BME280;31382;50.200;8.674;2023-04-09T20:13:25;101039.13;;;11.59;49.34
45323;BME280;31382;50.200;8.674;2023-04-09T20:18:26;101037.06;;;11.45;50.19
45323;BME280;31382;50.200;8.674;2023-04-09T20:23:28;101046.47;;;11.41;50.31
45323;BME280;31382;50.200;8.674;2023-04-09T20:28:30;101046.28;;;11.26;50.65
45323;BME280;31382;50.200;8.674;2023-04-09T20:33:32;101042.03;;;11.15;51.15
45323;BME280;31382;50.200;8.674;2023-04-09T20:38:34;101044.09;;;10.87;51.86
45323;BME280;31382;50.200;8.674;2023-04-09T20:43:35;101051.41;;;10.68;52.55
45323;BME280;31382;50.200;8.674;2023-04-09T20:48:38;101044.19;;;10.69;52.23
45323;BME280;31382;50.200;8.674;2023-04-09T20:53:39;101047.13;;;10.58;52.56
45323;BME280;31382;50.200;8.674;2023-04-09T20:58:41;101057.16;;;10.47;52.93
45323;BME280;31382;50.200;8.674;2023-04-09T21:03:42;101059.94;;;10.38;53.20
45323;BME280;31382;50.200;8.674;2023-04-09T21:08:44;101056.34;;;10.29;53.42
45323;BME280;31382;50.200;8.674;2023-04-09T21:13:46;101060.63;;;10.22;53.59
45323;BME280;31382;50.200;8.674;2023-04-09T21:18:55;101050.66;;;10.14;53.83
45323;BME280;31382;50.200;8.674;2023-04-09T21:23:57;101046.84;;;9.99;54.16
45323;BME280;31382;50.200;8.674;2023-04-09T21:28:58;101049.84;;;9.78;54.90
45323;BME280;31382;50.200;8.674;2023-04-09T21:34:00;101039.69;;;9.71;54.44
45323;BME280;31382;50.200;8.674;2023-04-09T21:39:01;101039.47;;;9.65;54.72
45323;BME280;31382;50.200;8.674;2023-04-09T21:44:04;101036.03;;;9.55;54.95
45323;BME280;31382;50.200;8.674;2023-04-09T21:49:08;101036.56;;;9.40;55.34
45323;BME280;31382;50.200;8.674;2023-04-09T21:54:10;101033.72;;;9.42;55.27
45323;BME280;31382;50.200;8.674;2023-04-09T21:59:11;101039.38;;;9.21;55.82
45323;BME280;31382;50.200;8.674;2023-04-09T22:04:12;101051.53;;;9.15;55.86
45323;BME280;31382;50.200;8.674;2023-04-09T22:09:14;101041.22;;;9.20;55.55
45323;BME280;31382;50.200;8.674;2023-04-09T22:14:16;101041.41;;;9.09;56.28
45323;BME280;31382;50.200;8.674;2023-04-09T22:19:18;101042.44;;;8.98;56.53
45323;BME280;31382;50.200;8.674;2023-04-09T22:24:20;101042.44;;;8.98;56.58
45323;BME280;31382;50.200;8.674;2023-04-09T22:29:28;101046.31;;;8.86;56.72
45323;BME280;31382;50.200;8.674;2023-04-09T22:34:29;101051.69;;;8.76;56.73
45323;BME280;31382;50.200;8.674;2023-04-09T22:39:30;101043.78;;;8.74;57.04
45323;BME280;31382;50.200;8.674;2023-04-09T22:44:32;101035.78;;;8.65;56.63
45323;BME280;31382;50.200;8.674;2023-04-09T22:49:33;101039.38;;;8.56;56.80
45323;BME280;31382;50.200;8.674;2023-04-09T22:54:35;101030.66;;;8.44;57.66
45323;BME280;31382;50.200;8.674;2023-04-09T22:59:38;101030.91;;;8.41;57.56
45323;BME280;31382;50.200;8.674;2023-04-09T23:04:41;101032.19;;;8.27;57.85
45323;BME280;31382;50.200;8.674;2023-04-09T23:09:43;101040.69;;;8.12;58.20
45323;BME280;31382;50.200;8.674;2023-04-09T23:14:45;101047.59;;;8.05;57.93
45323;BME280;31382;50.200;8.674;2023-04-09T23:19:49;101040.28;;;7.98;58.25
45323;BME280;31382;50.200;8.674;2023-04-09T23:24:52;101039.16;;;8.00;57.66
45323;BME280;31382;50.200;8.674;2023-04-09T23:29:54;101040.84;;;8.01;58.31
45323;BME280;31382;50.200;8.674;2023-04-09T23:34:56;101039.56;;;7.95;58.51
45323;BME280;31382;50.200;8.674;2023-04-09T23:39:59;101049.03;;;7.90;58.31
45323;BME280;31382;50.200;8.674;2023-04-09T23:45:01;101031.84;;;7.73;58.83
45323;BME280;31382;50.200;8.674;2023-04-09T23:50:06;101037.03;;;7.55;59.08
45323;BME280;31382;50.200;8.674;2023-04-09T23:55:08;101036.03;;;7.56;58.55
